Lugovoj, Kazakhstan
Current Conditions -  °F | °C
As of 8:00 AM on Wednesday 22 Oct 2014 (Local Time) from UADD Reporting Station
Clear Clear  
Wind Chill: 45°   Ceiling: Unl
Heat Index: 45°   Visibility: 5mi
Dew Point: 43°   Wind: 2mph
Humidity: 93%   Direction: NA
Pressure: 30.03"   Gusts: NA
Location:  42.95°N, 72.75°E
Report Text: UADD 220200Z VRB01MPS 8000 NSC 07/06 Q1017 NOSIG RMKQFE705/0941
Loading
Personal Weather Stations






























Interactive Weather Map
Tropical Storm Tracking
New forecast layout! Learn more

10-Day Weather Forecast

Advertisements
Track Severe Weather on mobile